Terminal Aerodrome Forecast
Issued by NWS

Home | Current Version | Previous Version | Text Only | Print | Product List | Glossary On
Versions: 1 2 3 4 5 6 7 8 9 10 11 12 13 14
000
FTUS46 KLOX 301100
TAFLGB
TAF
KLGB 301130Z 3012/3112 VRB03KT P6SM SKC
     FM301300 VRB03KT 6SM BR BKN008
     FM301600 VRB03KT P6SM SKC
     FM301900 20007KT P6SM SKC
     FM310000 29008KT P6SM SKC
     FM310500 VRB03KT P6SM SKC
     FM310700 11006KT P6SM BKN008
     FM311100 VRB03KT P6SM OVC012=

USA.gov is the U.S. government's official web portal to all federal, state and local government web resources and services.